Drayton Plns, Michigan
Current Conditions -  °F | °C
As of 7:53 AM on Friday 24 Oct 2014 (Local Time) from KPTK Reporting Station
Broken Clouds Broken Clouds  
Wind Chill: 36°   Ceiling: 25000
Heat Index: 36°   Visibility: 10mi
Dew Point: 33°   Wind: 0mph
Humidity: 89%   Direction: NA
Pressure: 30.06"   Gusts: NA
Location:  42.6842°N, 83.3775°W
Report Text: KPTK 241153Z 00000KT 10SM BKN250 02/01 A3006 RMK AO2 SLP186 T00220006 10028 20011 58000
Loading
Personal Weather Stations






























Interactive Weather Map
Tropical Storm Tracking
New forecast layout! Learn more

10-Day Weather Forecast

Advertisements
Track Severe Weather on mobile